sensor_id;sensor_type;location;lat;lon;timestamp;pressure;altitude;pressure_sealevel;temperature;humidity
29359;BME280;16347;53.232;6.556;2023-07-09T00:01:13;101756.47;;;29.19;38.98
29359;BME280;16347;53.232;6.556;2023-07-09T00:03:41;101756.75;;;29.17;38.58
29359;BME280;16347;53.232;6.556;2023-07-09T00:06:10;101757.53;;;29.13;38.74
29359;BME280;16347;53.232;6.556;2023-07-09T00:08:43;101760.84;;;29.10;38.86
29359;BME280;16347;53.232;6.556;2023-07-09T00:11:13;101759.66;;;29.06;38.65
29359;BME280;16347;53.232;6.556;2023-07-09T00:13:43;101755.44;;;29.03;38.60
29359;BME280;16347;53.232;6.556;2023-07-09T00:16:13;101762.97;;;29.02;38.88
29359;BME280;16347;53.232;6.556;2023-07-09T00:18:43;101766.31;;;28.99;38.53
29359;BME280;16347;53.232;6.556;2023-07-09T00:21:12;101755.34;;;28.98;38.84
29359;BME280;16347;53.232;6.556;2023-07-09T00:23:40;101755.09;;;28.99;38.28
29359;BME280;16347;53.232;6.556;2023-07-09T00:26:09;101755.34;;;28.98;38.55
29359;BME280;16347;53.232;6.556;2023-07-09T00:28:37;101759.28;;;28.97;38.10
29359;BME280;16347;53.232;6.556;2023-07-09T00:31:09;101758.44;;;28.96;38.00
29359;BME280;16347;53.232;6.556;2023-07-09T00:33:40;101763.41;;;28.94;38.06
29359;BME280;16347;53.232;6.556;2023-07-09T00:36:14;101761.75;;;28.93;38.36
29359;BME280;16347;53.232;6.556;2023-07-09T00:38:43;101763.41;;;28.94;38.39
29359;BME280;16347;53.232;6.556;2023-07-09T00:41:16;101759.47;;;28.90;38.06
29359;BME280;16347;53.232;6.556;2023-07-09T00:43:46;101761.13;;;28.91;38.34
29359;BME280;16347;53.232;6.556;2023-07-09T00:49:32;101760.22;;;28.86;38.49
29359;BME280;16347;53.232;6.556;2023-07-09T00:52:03;101758.19;;;28.81;38.67
29359;BME280;16347;53.232;6.556;2023-07-09T00:54:37;101758.53;;;28.85;38.84
29359;BME280;16347;53.232;6.556;2023-07-09T00:57:10;101754.56;;;28.81;38.13
29359;BME280;16347;53.232;6.556;2023-07-09T00:59:45;101753.72;;;28.80;38.76
29359;BME280;16347;53.232;6.556;2023-07-09T01:02:17;101744.47;;;28.80;38.02
29359;BME280;16347;53.232;6.556;2023-07-09T01:04:50;101750.81;;;28.75;38.40
29359;BME280;16347;53.232;6.556;2023-07-09T01:07:19;101749.97;;;28.75;38.14
29359;BME280;16347;53.232;6.556;2023-07-09T01:09:48;101751.34;;;28.72;38.33
29359;BME280;16347;53.232;6.556;2023-07-09T01:12:18;101746.84;;;28.71;38.31
29359;BME280;16347;53.232;6.556;2023-07-09T01:14:48;101745.69;;;28.67;38.68
29359;BME280;16347;53.232;6.556;2023-07-09T01:17:20;101757.97;;;28.66;37.89
29359;BME280;16347;53.232;6.556;2023-07-09T01:19:50;101769.84;;;28.57;38.76
29359;BME280;16347;53.232;6.556;2023-07-09T01:22:21;101761.44;;;28.57;38.59
29359;BME280;16347;53.232;6.556;2023-07-09T01:24:54;101754.72;;;28.58;39.04
29359;BME280;16347;53.232;6.556;2023-07-09T01:27:24;101755.56;;;28.58;38.76
29359;BME280;16347;53.232;6.556;2023-07-09T01:29:55;101756.69;;;28.57;39.24
29359;BME280;16347;53.232;6.556;2023-07-09T01:32:24;101754.47;;;28.59;39.38
29359;BME280;16347;53.232;6.556;2023-07-09T01:34:54;101760.31;;;28.58;39.19
29359;BME280;16347;53.232;6.556;2023-07-09T01:37:26;101748.03;;;28.59;39.15
29359;BME280;16347;53.232;6.556;2023-07-09T01:39:55;101750.75;;;28.53;39.33
29359;BME280;16347;53.232;6.556;2023-07-09T01:42:25;101745.41;;;28.52;39.66
29359;BME280;16347;53.232;6.556;2023-07-09T01:44:55;101747.00;;;28.48;39.31
29359;BME280;16347;53.232;6.556;2023-07-09T01:47:23;101740.56;;;28.47;39.63
29359;BME280;16347;53.232;6.556;2023-07-09T01:49:53;101748.38;;;28.45;39.16
29359;BME280;16347;53.232;6.556;2023-07-09T01:52:28;101753.47;;;28.48;39.38
29359;BME280;16347;53.232;6.556;2023-07-09T01:54:57;101743.63;;;28.46;39.15
29359;BME280;16347;53.232;6.556;2023-07-09T01:57:27;101750.59;;;28.43;39.22
29359;BME280;16347;53.232;6.556;2023-07-09T02:00:04;101751.69;;;28.42;39.09
29359;BME280;16347;53.232;6.556;2023-07-09T02:02:47;101756.69;;;28.40;39.21
29359;BME280;16347;53.232;6.556;2023-07-09T02:05:19;101742.38;;;28.37;39.11
29359;BME280;16347;53.232;6.556;2023-07-09T02:07:48;101745.69;;;28.34;39.03
29359;BME280;16347;53.232;6.556;2023-07-09T02:10:17;101749.31;;;28.34;39.14
29359;BME280;16347;53.232;6.556;2023-07-09T02:12:45;101734.00;;;28.37;39.02
29359;BME280;16347;53.232;6.556;2023-07-09T02:15:15;101737.28;;;28.34;39.26
29359;BME280;16347;53.232;6.556;2023-07-09T02:17:44;101743.13;;;28.32;39.21
29359;BME280;16347;53.232;6.556;2023-07-09T02:20:12;101747.28;;;28.30;39.61
29359;BME280;16347;53.232;6.556;2023-07-09T02:22:42;101745.59;;;28.29;39.27
29359;BME280;16347;53.232;6.556;2023-07-09T02:25:12;101741.88;;;28.23;39.56
29359;BME280;16347;53.232;6.556;2023-07-09T02:27:41;101744.91;;;28.22;39.39
29359;BME280;16347;53.232;6.556;2023-07-09T02:30:09;101741.53;;;28.20;39.53
29359;BME280;16347;53.232;6.556;2023-07-09T02:32:38;101740.69;;;28.19;39.62
29359;BME280;16347;53.232;6.556;2023-07-09T02:35:08;101739.81;;;28.19;39.52
29359;BME280;16347;53.232;6.556;2023-07-09T02:37:36;101738.72;;;28.20;39.64
29359;BME280;16347;53.232;6.556;2023-07-09T02:40:09;101742.84;;;28.17;39.42
29359;BME280;16347;53.232;6.556;2023-07-09T02:42:39;101738.47;;;28.21;39.58
29359;BME280;16347;53.232;6.556;2023-07-09T02:45:09;101744.31;;;28.20;39.39
29359;BME280;16347;53.232;6.556;2023-07-09T02:47:38;101736.50;;;28.22;39.54
29359;BME280;16347;53.232;6.556;2023-07-09T02:50:07;101739.94;;;28.24;39.45
29359;BME280;16347;53.232;6.556;2023-07-09T02:52:35;101739.06;;;28.23;39.12
29359;BME280;16347;53.232;6.556;2023-07-09T02:55:04;101737.72;;;28.26;39.37
29359;BME280;16347;53.232;6.556;2023-07-09T02:57:32;101740.34;;;28.16;39.09
29359;BME280;16347;53.232;6.556;2023-07-09T03:00:02;101735.25;;;28.13;39.37
29359;BME280;16347;53.232;6.556;2023-07-09T03:02:33;101742.53;;;28.14;39.21
29359;BME280;16347;53.232;6.556;2023-07-09T03:05:01;101738.28;;;28.11;39.24
29359;BME280;16347;53.232;6.556;2023-07-09T03:07:29;101741.22;;;28.04;39.50
29359;BME280;16347;53.232;6.556;2023-07-09T03:09:57;101738.84;;;27.96;39.14
29359;BME280;16347;53.232;6.556;2023-07-09T03:12:25;101740.78;;;27.96;38.96
29359;BME280;16347;53.232;6.556;2023-07-09T03:14:53;101740.19;;;27.94;39.05
29359;BME280;16347;53.232;6.556;2023-07-09T03:17:22;101746.03;;;27.92;39.52
29359;BME280;16347;53.232;6.556;2023-07-09T03:19:50;101741.03;;;27.94;39.20
29359;BME280;16347;53.232;6.556;2023-07-09T03:22:18;101740.78;;;27.96;38.88
29359;BME280;16347;53.232;6.556;2023-07-09T03:24:46;101737.16;;;27.95;39.06
29359;BME280;16347;53.232;6.556;2023-07-09T03:27:14;101748.91;;;27.97;38.78
29359;BME280;16347;53.232;6.556;2023-07-09T03:29:42;101747.25;;;27.96;38.80
29359;BME280;16347;53.232;6.556;2023-07-09T03:32:10;101748.31;;;27.95;39.13
29359;BME280;16347;53.232;6.556;2023-07-09T03:34:40;101749.19;;;27.96;38.46
29359;BME280;16347;53.232;6.556;2023-07-09T03:37:08;101746.03;;;27.92;38.19
29359;BME280;16347;53.232;6.556;2023-07-09T03:39:36;101747.78;;;27.82;38.56
29359;BME280;16347;53.232;6.556;2023-07-09T03:42:04;101740.25;;;27.82;38.45
29359;BME280;16347;53.232;6.556;2023-07-09T03:44:32;101752.94;;;27.73;37.70
29359;BME280;16347;53.232;6.556;2023-07-09T03:47:00;101758.72;;;27.55;38.03
29359;BME280;16347;53.232;6.556;2023-07-09T03:49:28;101748.41;;;27.56;38.34
29359;BME280;16347;53.232;6.556;2023-07-09T03:51:59;101758.16;;;27.53;38.67
29359;BME280;16347;53.232;6.556;2023-07-09T03:54:27;101753.38;;;27.53;38.85
29359;BME280;16347;53.232;6.556;2023-07-09T03:56:54;101746.69;;;27.55;39.17
29359;BME280;16347;53.232;6.556;2023-07-09T03:59:22;101750.34;;;27.55;38.67
29359;BME280;16347;53.232;6.556;2023-07-09T04:01:50;101741.72;;;27.57;38.85
29359;BME280;16347;53.232;6.556;2023-07-09T04:04:18;101746.69;;;27.55;38.63
29359;BME280;16347;53.232;6.556;2023-07-09T04:06:47;101755.34;;;27.53;38.46
29359;BME280;16347;53.232;6.556;2023-07-09T04:09:17;101748.91;;;27.52;38.82
29359;BME280;16347;53.232;6.556;2023-07-09T04:11:44;101753.50;;;27.59;38.68
29359;BME280;16347;53.232;6.556;2023-07-09T04:14:12;101736.81;;;27.64;39.10
29359;BME280;16347;53.232;6.556;2023-07-09T04:16:40;101740.56;;;27.69;38.69
29359;BME280;16347;53.232;6.556;2023-07-09T04:19:08;101744.97;;;27.65;38.32
29359;BME280;16347;53.232;6.556;2023-07-09T04:21:36;101738.66;;;27.58;38.15
29359;BME280;16347;53.232;6.556;2023-07-09T04:24:05;101741.63;;;27.51;38.27
29359;BME280;16347;53.232;6.556;2023-07-09T04:26:35;101753.88;;;27.50;38.86
29359;BME280;16347;53.232;6.556;2023-07-09T04:29:06;101752.59;;;27.70;38.24
29359;BME280;16347;53.232;6.556;2023-07-09T04:31:34;101752.19;;;27.38;38.59
29359;BME280;16347;53.232;6.556;2023-07-09T04:34:02;101763.88;;;27.35;38.81
29359;BME280;16347;53.232;6.556;2023-07-09T04:36:30;101758.44;;;27.28;38.90
29359;BME280;16347;53.232;6.556;2023-07-09T04:38:58;101753.97;;;27.16;39.09
29359;BME280;16347;53.232;6.556;2023-07-09T04:41:26;101756.28;;;27.19;39.42
29359;BME280;16347;53.232;6.556;2023-07-09T04:43:56;101752.72;;;27.23;39.76
29359;BME280;16347;53.232;6.556;2023-07-09T04:46:25;101756.88;;;27.21;39.55
29359;BME280;16347;53.232;6.556;2023-07-09T04:48:53;101753.84;;;27.22;39.45
29359;BME280;16347;53.232;6.556;2023-07-09T04:51:22;101745.69;;;27.21;39.89
29359;BME280;16347;53.232;6.556;2023-07-09T04:53:50;101759.16;;;27.24;40.16
29359;BME280;16347;53.232;6.556;2023-07-09T04:56:18;101752.00;;;27.28;39.82
29359;BME280;16347;53.232;6.556;2023-07-09T04:58:46;101754.34;;;27.19;39.49
29359;BME280;16347;53.232;6.556;2023-07-09T05:01:17;101750.91;;;27.29;40.25
29359;BME280;16347;53.232;6.556;2023-07-09T05:03:45;101753.94;;;27.27;39.52
29359;BME280;16347;53.232;6.556;2023-07-09T05:06:13;101763.31;;;27.21;40.31
29359;BME280;16347;53.232;6.556;2023-07-09T05:08:42;101761.09;;;27.23;40.05
29359;BME280;16347;53.232;6.556;2023-07-09T05:11:09;101756.72;;;27.27;40.18
29359;BME280;16347;53.232;6.556;2023-07-09T05:13:38;101768.25;;;27.31;39.88
29359;BME280;16347;53.232;6.556;2023-07-09T05:16:06;101763.31;;;27.21;40.10
29359;BME280;16347;53.232;6.556;2023-07-09T05:18:36;101759.56;;;27.16;40.74
29359;BME280;16347;53.232;6.556;2023-07-09T05:21:04;101762.06;;;27.29;40.39
29359;BME280;16347;53.232;6.556;2023-07-09T05:23:32;101764.09;;;27.33;40.10
29359;BME280;16347;53.232;6.556;2023-07-09T05:26:02;101772.47;;;27.33;40.34
29359;BME280;16347;53.232;6.556;2023-07-09T05:28:31;101767.50;;;27.35;39.76
29359;BME280;16347;53.232;6.556;2023-07-09T05:30:59;101765.72;;;27.29;40.07
29359;BME280;16347;53.232;6.556;2023-07-09T05:33:27;101759.63;;;27.32;40.31
29359;BME280;16347;53.232;6.556;2023-07-09T05:35:57;101762.81;;;27.24;40.08
29359;BME280;16347;53.232;6.556;2023-07-09T05:38:25;101764.78;;;27.12;40.43
29359;BME280;16347;53.232;6.556;2023-07-09T05:40:59;101760.78;;;27.08;40.74
29359;BME280;16347;53.232;6.556;2023-07-09T05:43:28;101753.41;;;27.02;41.03
29359;BME280;16347;53.232;6.556;2023-07-09T05:45:57;101760.91;;;26.90;40.80
29359;BME280;16347;53.232;6.556;2023-07-09T05:48:28;101761.19;;;26.88;41.07
29359;BME280;16347;53.232;6.556;2023-07-09T05:50:57;101766.50;;;26.90;41.13
29359;BME280;16347;53.232;6.556;2023-07-09T05:53:25;101766.72;;;27.00;41.40
29359;BME280;16347;53.232;6.556;2023-07-09T05:55:53;101766.97;;;27.10;40.85
29359;BME280;16347;53.232;6.556;2023-07-09T05:58:21;101762.97;;;27.06;41.04
29359;BME280;16347;53.232;6.556;2023-07-09T06:00:50;101768.31;;;27.08;41.00
29359;BME280;16347;53.232;6.556;2023-07-09T06:03:21;101771.72;;;26.98;41.38
29359;BME280;16347;53.232;6.556;2023-07-09T06:05:50;101766.84;;;27.05;41.07
29359;BME280;16347;53.232;6.556;2023-07-09T06:08:20;101764.44;;;27.09;41.36
29359;BME280;16347;53.232;6.556;2023-07-09T06:10:53;101770.22;;;27.19;41.37
29359;BME280;16347;53.232;6.556;2023-07-09T06:13:21;101774.50;;;27.10;41.35
29359;BME280;16347;53.232;6.556;2023-07-09T06:15:54;101787.47;;;27.16;41.09
29359;BME280;16347;53.232;6.556;2023-07-09T06:18:23;101778.34;;;27.20;41.44
29359;BME280;16347;53.232;6.556;2023-07-09T06:20:53;101783.06;;;27.20;41.56
29359;BME280;16347;53.232;6.556;2023-07-09T06:23:24;101782.63;;;27.23;41.61
29359;BME280;16347;53.232;6.556;2023-07-09T06:25:52;101781.41;;;27.19;41.77
29359;BME280;16347;53.232;6.556;2023-07-09T06:28:23;101785.06;;;27.19;41.76
29359;BME280;16347;53.232;6.556;2023-07-09T06:30:51;101793.44;;;27.19;42.12
29359;BME280;16347;53.232;6.556;2023-07-09T06:33:19;101790.13;;;27.22;42.25
29359;BME280;16347;53.232;6.556;2023-07-09T06:35:48;101799.50;;;27.16;42.17
29359;BME280;16347;53.232;6.556;2023-07-09T06:38:17;101790.63;;;27.08;42.76
29359;BME280;16347;53.232;6.556;2023-07-09T06:40:47;101793.78;;;27.11;42.61
29359;BME280;16347;53.232;6.556;2023-07-09T06:43:15;101794.78;;;27.05;42.60
29359;BME280;16347;53.232;6.556;2023-07-09T06:45:51;101794.66;;;27.12;43.05
29359;BME280;16347;53.232;6.556;2023-07-09T06:48:20;101789.78;;;27.07;42.69
29359;BME280;16347;53.232;6.556;2023-07-09T06:50:48;101794.88;;;27.22;43.12
29359;BME280;16347;53.232;6.556;2023-07-09T06:53:16;101792.16;;;27.27;43.17
29359;BME280;16347;53.232;6.556;2023-07-09T06:55:44;101796.84;;;27.10;42.99
29359;BME280;16347;53.232;6.556;2023-07-09T06:58:13;101795.81;;;27.27;42.74
29359;BME280;16347;53.232;6.556;2023-07-09T07:00:41;101794.59;;;27.35;42.76
29359;BME280;16347;53.232;6.556;2023-07-09T07:03:09;101795.03;;;27.43;42.76
29359;BME280;16347;53.232;6.556;2023-07-09T07:05:42;101802.59;;;27.55;42.73
29359;BME280;16347;53.232;6.556;2023-07-09T07:08:13;101803.94;;;27.52;42.69
29359;BME280;16347;53.232;6.556;2023-07-09T07:10:42;101803.78;;;27.59;42.44
29359;BME280;16347;53.232;6.556;2023-07-09T07:13:10;101809.97;;;27.61;42.80
29359;BME280;16347;53.232;6.556;2023-07-09T07:15:40;101808.38;;;27.65;42.52
29359;BME280;16347;53.232;6.556;2023-07-09T07:18:08;101811.16;;;27.65;42.65
29359;BME280;16347;53.232;6.556;2023-07-09T07:20:36;101803.66;;;27.65;42.77
29359;BME280;16347;53.232;6.556;2023-07-09T07:23:04;101809.31;;;27.70;42.79
29359;BME280;16347;53.232;6.556;2023-07-09T07:25:32;101807.72;;;27.74;42.89
29359;BME280;16347;53.232;6.556;2023-07-09T07:28:00;101815.88;;;27.76;42.44
29359;BME280;16347;53.232;6.556;2023-07-09T07:30:28;101814.28;;;27.80;42.99
29359;BME280;16347;53.232;6.556;2023-07-09T07:32:58;101812.22;;;27.75;43.04
29359;BME280;16347;53.232;6.556;2023-07-09T07:35:26;101808.69;;;27.80;43.45
29359;BME280;16347;53.232;6.556;2023-07-09T07:37:54;101807.53;;;27.92;43.55
29359;BME280;16347;53.232;6.556;2023-07-09T07:40:23;101814.72;;;27.88;43.32
29359;BME280;16347;53.232;6.556;2023-07-09T07:42:52;101816.72;;;27.76;44.25
29359;BME280;16347;53.232;6.556;2023-07-09T07:45:20;101826.25;;;27.92;44.19
29359;BME280;16347;53.232;6.556;2023-07-09T07:47:48;101815.78;;;27.99;44.27
29359;BME280;16347;53.232;6.556;2023-07-09T07:50:19;101812.47;;;28.02;44.12
29359;BME280;16347;53.232;6.556;2023-07-09T07:52:47;101816.25;;;28.08;44.42
29359;BME280;16347;53.232;6.556;2023-07-09T07:55:17;101823.88;;;28.12;44.65
29359;BME280;16347;53.232;6.556;2023-07-09T07:57:46;101828.19;;;27.91;45.51
29359;BME280;16347;53.232;6.556;2023-07-09T08:00:15;101825.63;;;27.73;46.11
29359;BME280;16347;53.232;6.556;2023-07-09T08:02:46;101831.25;;;27.90;45.97
29359;BME280;16347;53.232;6.556;2023-07-09T08:05:14;101831.09;;;27.96;46.23
29359;BME280;16347;53.232;6.556;2023-07-09T08:07:44;101816.00;;;27.97;46.15
29359;BME280;16347;53.232;6.556;2023-07-09T08:10:12;101820.97;;;28.07;46.43
29359;BME280;16347;53.232;6.556;2023-07-09T08:12:42;101820.41;;;28.22;45.84
29359;BME280;16347;53.232;6.556;2023-07-09T08:15:10;101818.47;;;28.22;46.12
29359;BME280;16347;53.232;6.556;2023-07-09T08:17:39;101818.38;;;28.17;46.49
29359;BME280;16347;53.232;6.556;2023-07-09T08:20:08;101813.91;;;28.33;46.50
29359;BME280;16347;53.232;6.556;2023-07-09T08:22:37;101816.78;;;28.38;46.02
29359;BME280;16347;53.232;6.556;2023-07-09T08:25:08;101821.22;;;28.50;45.75
29359;BME280;16347;53.232;6.556;2023-07-09T08:27:36;101822.50;;;28.60;45.81
29359;BME280;16347;53.232;6.556;2023-07-09T08:30:05;101815.53;;;28.62;45.14
29359;BME280;16347;53.232;6.556;2023-07-09T08:32:34;101813.78;;;28.73;45.56
29359;BME280;16347;53.232;6.556;2023-07-09T08:35:02;101821.16;;;28.79;45.43
29359;BME280;16347;53.232;6.556;2023-07-09T08:37:50;101813.41;;;28.86;45.03
29359;BME280;16347;53.232;6.556;2023-07-09T08:40:19;101807.31;;;28.89;44.93
29359;BME280;16347;53.232;6.556;2023-07-09T08:42:52;101816.91;;;28.93;45.27
29359;BME280;16347;53.232;6.556;2023-07-09T08:45:35;101815.28;;;28.97;44.78
29359;BME280;16347;53.232;6.556;2023-07-09T08:48:13;101818.94;;;28.97;45.09
29359;BME280;16347;53.232;6.556;2023-07-09T08:50:48;101820.94;;;29.02;45.72
29359;BME280;16347;53.232;6.556;2023-07-09T08:53:21;101818.47;;;29.06;44.78
29359;BME280;16347;53.232;6.556;2023-07-09T08:55:55;101806.03;;;29.18;44.26
29359;BME280;16347;53.232;6.556;2023-07-09T08:58:25;101811.47;;;29.25;44.60
29359;BME280;16347;53.232;6.556;2023-07-09T09:00:55;101812.09;;;29.27;44.41
29359;BME280;16347;53.232;6.556;2023-07-09T09:03:31;101810.94;;;29.44;44.41
29359;BME280;16347;53.232;6.556;2023-07-09T09:06:10;101816.75;;;29.38;44.25
29359;BME280;16347;53.232;6.556;2023-07-09T09:08:40;101811.97;;;29.38;44.38
29359;BME280;16347;53.232;6.556;2023-07-09T09:11:15;101812.88;;;29.44;44.70
29359;BME280;16347;53.232;6.556;2023-07-09T09:13:50;101816.13;;;29.36;44.97
29359;BME280;16347;53.232;6.556;2023-07-09T09:16:23;101810.63;;;29.41;44.24
29359;BME280;16347;53.232;6.556;2023-07-09T09:18:55;101812.75;;;29.34;44.62
29359;BME280;16347;53.232;6.556;2023-07-09T09:21:26;101811.19;;;29.43;45.32
29359;BME280;16347;53.232;6.556;2023-07-09T09:24:02;101810.09;;;29.44;45.39
29359;BME280;16347;53.232;6.556;2023-07-09T09:26:39;101806.44;;;29.43;45.83
29359;BME280;16347;53.232;6.556;2023-07-09T09:29:11;101807.34;;;29.49;46.11
29359;BME280;16347;53.232;6.556;2023-07-09T09:31:40;101812.16;;;29.53;45.50
29359;BME280;16347;53.232;6.556;2023-07-09T09:34:17;101810.59;;;29.63;45.21
29359;BME280;16347;53.232;6.556;2023-07-09T09:36:45;101806.69;;;29.64;44.59
29359;BME280;16347;53.232;6.556;2023-07-09T09:39:14;101812.63;;;29.67;45.37
29359;BME280;16347;53.232;6.556;2023-07-09T09:41:44;101821.28;;;29.66;44.57
29359;BME280;16347;53.232;6.556;2023-07-09T09:44:20;101819.00;;;29.63;45.05
29359;BME280;16347;53.232;6.556;2023-07-09T09:46:49;101829.44;;;29.67;45.52
29359;BME280;16347;53.232;6.556;2023-07-09T09:49:18;101825.25;;;29.70;46.23
29359;BME280;16347;53.232;6.556;2023-07-09T09:51:47;101828.97;;;29.75;46.21
29359;BME280;16347;53.232;6.556;2023-07-09T09:54:18;101831.44;;;29.72;46.30
29359;BME280;16347;53.232;6.556;2023-07-09T09:56:50;101839.91;;;29.77;45.55
29359;BME280;16347;53.232;6.556;2023-07-09T09:59:20;101834.25;;;29.72;45.97
29359;BME280;16347;53.232;6.556;2023-07-09T10:01:56;101828.44;;;29.78;45.95
29359;BME280;16347;53.232;6.556;2023-07-09T10:04:25;101836.06;;;29.83;45.69
29359;BME280;16347;53.232;6.556;2023-07-09T10:06:56;101828.84;;;29.87;44.86
29359;BME280;16347;53.232;6.556;2023-07-09T10:09:39;101841.50;;;29.89;45.42
29359;BME280;16347;53.232;6.556;2023-07-09T10:12:15;101835.97;;;29.94;44.46
29359;BME280;16347;53.232;6.556;2023-07-09T10:14:51;101840.22;;;30.02;44.38
29359;BME280;16347;53.232;6.556;2023-07-09T10:17:37;101842.25;;;30.07;44.02
29359;BME280;16347;53.232;6.556;2023-07-09T10:20:09;101840.31;;;30.07;44.46
29359;BME280;16347;53.232;6.556;2023-07-09T10:22:50;101845.94;;;30.12;43.74
29359;BME280;16347;53.232;6.556;2023-07-09T10:25:29;101851.88;;;30.16;43.99
29359;BME280;16347;53.232;6.556;2023-07-09T10:28:22;101843.22;;;30.17;44.45
29359;BME280;16347;53.232;6.556;2023-07-09T10:31:00;101842.66;;;30.15;44.04
29359;BME280;16347;53.232;6.556;2023-07-09T10:33:46;101843.78;;;30.19;43.75
29359;BME280;16347;53.232;6.556;2023-07-09T10:36:29;101839.09;;;30.25;43.37
29359;BME280;16347;53.232;6.556;2023-07-09T10:39:01;101835.13;;;30.21;44.51
29359;BME280;16347;53.232;6.556;2023-07-09T10:41:31;101831.00;;;30.28;44.34
29359;BME280;16347;53.232;6.556;2023-07-09T10:44:06;101822.56;;;30.28;44.25
29359;BME280;16347;53.232;6.556;2023-07-09T10:46:40;101825.94;;;30.30;44.33
29359;BME280;16347;53.232;6.556;2023-07-09T10:49:12;101824.03;;;30.36;44.42
29359;BME280;16347;53.232;6.556;2023-07-09T10:51:44;101824.69;;;30.43;43.72
29359;BME280;16347;53.232;6.556;2023-07-09T10:54:23;101823.19;;;30.35;43.87
29359;BME280;16347;53.232;6.556;2023-07-09T10:56:56;101822.03;;;30.31;43.33
29359;BME280;16347;53.232;6.556;2023-07-09T10:59:30;101815.34;;;30.37;44.06
29359;BME280;16347;53.232;6.556;2023-07-09T11:02:21;101818.81;;;30.44;44.81
29359;BME280;16347;53.232;6.556;2023-07-09T11:04:52;101817.78;;;30.56;45.36
29359;BME280;16347;53.232;6.556;2023-07-09T11:07:26;101812.22;;;30.61;43.81
29359;BME280;16347;53.232;6.556;2023-07-09T11:09:58;101807.13;;;30.58;43.47
29359;BME280;16347;53.232;6.556;2023-07-09T11:12:30;101802.69;;;30.62;43.48
29359;BME280;16347;53.232;6.556;2023-07-09T11:15:06;101799.91;;;30.67;42.43
29359;BME280;16347;53.232;6.556;2023-07-09T11:17:38;101789.75;;;30.61;41.76
29359;BME280;16347;53.232;6.556;2023-07-09T11:20:18;101790.91;;;30.65;42.00
29359;BME280;16347;53.232;6.556;2023-07-09T11:22:53;101785.00;;;30.66;41.40
29359;BME280;16347;53.232;6.556;2023-07-09T11:25:30;101789.75;;;30.61;41.04
29359;BME280;16347;53.232;6.556;2023-07-09T11:28:04;101786.69;;;30.62;41.18
29359;BME280;16347;53.232;6.556;2023-07-09T11:30:45;101783.09;;;30.72;41.34
29359;BME280;16347;53.232;6.556;2023-07-09T11:33:18;101784.53;;;30.79;40.98
29359;BME280;16347;53.232;6.556;2023-07-09T11:35:53;101785.44;;;30.85;41.15
29359;BME280;16347;53.232;6.556;2023-07-09T11:38:23;101783.81;;;30.94;41.17
29359;BME280;16347;53.232;6.556;2023-07-09T11:40:53;101783.34;;;31.02;40.92
29359;BME280;16347;53.232;6.556;2023-07-09T11:43:29;101787.03;;;31.13;40.95
29359;BME280;16347;53.232;6.556;2023-07-09T11:46:10;101780.59;;;31.17;40.97
29359;BME280;16347;53.232;6.556;2023-07-09T11:48:40;101786.81;;;31.19;40.51
29359;BME280;16347;53.232;6.556;2023-07-09T11:51:14;101777.28;;;31.25;40.41
29359;BME280;16347;53.232;6.556;2023-07-09T11:53:46;101782.06;;;31.30;40.34
29359;BME280;16347;53.232;6.556;2023-07-09T11:56:18;101780.13;;;31.35;39.98
29359;BME280;16347;53.232;6.556;2023-07-09T11:58:50;101781.00;;;31.41;40.16
29359;BME280;16347;53.232;6.556;2023-07-09T12:01:22;101785.25;;;31.48;40.31
29359;BME280;16347;53.232;6.556;2023-07-09T12:03:50;101784.19;;;31.65;40.11
29359;BME280;16347;53.232;6.556;2023-07-09T12:06:21;101777.44;;;31.61;39.35
29359;BME280;16347;53.232;6.556;2023-07-09T12:08:51;101784.19;;;31.65;39.10
29359;BME280;16347;53.232;6.556;2023-07-09T12:11:21;101786.75;;;31.71;38.92
29359;BME280;16347;53.232;6.556;2023-07-09T12:13:50;101782.53;;;31.74;38.13
29359;BME280;16347;53.232;6.556;2023-07-09T12:16:24;101776.38;;;31.82;37.57
29359;BME280;16347;53.232;6.556;2023-07-09T12:18:53;101777.78;;;31.84;37.49
29359;BME280;16347;53.232;6.556;2023-07-09T12:21:22;101767.13;;;31.91;36.40
29359;BME280;16347;53.232;6.556;2023-07-09T12:23:52;101764.31;;;31.96;36.08
29359;BME280;16347;53.232;6.556;2023-07-09T12:26:20;101764.06;;;32.08;36.57
29359;BME280;16347;53.232;6.556;2023-07-09T12:28:52;101764.63;;;32.20;36.22
29359;BME280;16347;53.232;6.556;2023-07-09T12:31:25;101764.38;;;32.32;36.19
29359;BME280;16347;53.232;6.556;2023-07-09T12:33:55;101769.16;;;32.41;35.42
29359;BME280;16347;53.232;6.556;2023-07-09T12:36:24;101759.84;;;32.51;35.14
29359;BME280;16347;53.232;6.556;2023-07-09T12:38:56;101765.22;;;32.58;35.44
29359;BME280;16347;53.232;6.556;2023-07-09T12:41:28;101753.97;;;32.63;35.06
29359;BME280;16347;53.232;6.556;2023-07-09T12:43:56;101748.03;;;32.69;35.04
29359;BME280;16347;53.232;6.556;2023-07-09T12:46:26;101750.56;;;32.76;34.65
29359;BME280;16347;53.232;6.556;2023-07-09T12:48:56;101745.47;;;32.83;34.67
29359;BME280;16347;53.232;6.556;2023-07-09T12:51:27;101731.09;;;32.89;34.46
29359;BME280;16347;53.232;6.556;2023-07-09T12:54:03;101734.72;;;33.00;34.98
29359;BME280;16347;53.232;6.556;2023-07-09T12:56:39;101745.97;;;33.05;35.03
29359;BME280;16347;53.232;6.556;2023-07-09T12:59:16;101744.56;;;33.13;34.44
29359;BME280;16347;53.232;6.556;2023-07-09T13:01:50;101741.16;;;33.16;34.22
29359;BME280;16347;53.232;6.556;2023-07-09T13:04:18;101744.81;;;33.21;34.24
29359;BME280;16347;53.232;6.556;2023-07-09T13:06:49;101730.97;;;33.25;33.87
29359;BME280;16347;53.232;6.556;2023-07-09T13:09:20;101725.03;;;33.31;34.49
29359;BME280;16347;53.232;6.556;2023-07-09T13:11:49;101732.91;;;33.34;34.58